Time;durP1;ratioP1;P1;durP2;ratioP2;P2;SDS_P1;SDS_P2;PMS_P1;PMS_P2;Temp;Humidity;BMP_temperature;BMP_pressure;BME280_temperature;BME280_humidity;BME280_pressure;Samples;Min_cycle;Max_cycle;Signal;HPM_P1;HPM_P2
2021/07/31 00:01:12;;;;;;;4.78;2.80;;;14.00;99.90;;;;;;4942947;29;20082;-96
2021/07/31 00:03:39;;;;;;;4.53;3.20;;;14.00;99.90;;;;;;4943294;29;20040;-96
2021/07/31 00:06:06;;;;;;;4.97;2.90;;;14.00;99.90;;;;;;4943397;29;20038;-95
2021/07/31 00:08:32;;;;;;;5.53;3.00;;;14.00;99.90;;;;;;4943591;29;20035;-96
2021/07/31 00:10:58;;;;;;;4.50;3.10;;;14.00;99.90;;;;;;4943512;29;20051;-95
2021/07/31 00:13:26;;;;;;;3.40;2.58;;;14.00;99.90;;;;;;4942985;29;20032;-95
2021/07/31 00:15:52;;;;;;;5.20;2.67;;;14.00;99.90;;;;;;4943044;29;20118;-95
2021/07/31 00:18:18;;;;;;;4.47;2.70;;;14.00;99.90;;;;;;4943477;29;20130;-95
2021/07/31 00:20:43;;;;;;;3.45;2.60;;;14.00;99.90;;;;;;4943044;29;20122;-95
2021/07/31 00:23:09;;;;;;;2.90;2.53;;;14.00;99.90;;;;;;4943244;29;20047;-96
2021/07/31 00:25:36;;;;;;;5.72;2.95;;;14.00;99.90;;;;;;4943311;29;20026;-95
2021/07/31 00:28:02;;;;;;;4.40;3.05;;;14.00;99.90;;;;;;4943096;29;20112;-94
2021/07/31 00:30:28;;;;;;;5.75;3.40;;;14.00;99.90;;;;;;4950434;29;20027;-95
2021/07/31 00:32:57;;;;;;;4.47;2.50;;;14.00;99.90;;;;;;4942908;29;20067;-94
2021/07/31 00:35:23;;;;;;;5.63;3.63;;;14.00;99.90;;;;;;4942931;29;20027;-95
2021/07/31 00:37:49;;;;;;;5.75;3.25;;;14.00;99.90;;;;;;4942807;29;20404;-96
2021/07/31 00:40:15;;;;;;;5.13;3.53;;;14.00;99.90;;;;;;4956016;29;20055;-95
2021/07/31 00:42:41;;;;;;;4.53;3.28;;;14.00;99.90;;;;;;4958031;29;20023;-96
2021/07/31 00:45:08;;;;;;;5.00;3.70;;;14.00;99.90;;;;;;4942393;29;20027;-94
2021/07/31 00:47:34;;;;;;;7.22;3.20;;;14.00;99.90;;;;;;4942313;29;20497;-96
2021/07/31 00:50:01;;;;;;;3.97;3.30;;;14.00;99.90;;;;;;4926194;29;20027;-96
2021/07/31 00:52:26;;;;;;;4.95;3.17;;;13.90;99.90;;;;;;4942741;29;20512;-95
2021/07/31 00:54:54;;;;;;;4.53;3.70;;;13.90;99.90;;;;;;4942363;28;20036;-96
2021/07/31 00:57:22;;;;;;;5.00;3.55;;;13.90;99.90;;;;;;4943880;29;20047;-95
2021/07/31 00:59:49;;;;;;;7.03;3.70;;;13.90;99.90;;;;;;4949568;29;20027;-96
2021/07/31 01:02:19;;;;;;;5.95;3.00;;;13.90;99.90;;;;;;4946932;29;20027;-96
2021/07/31 01:04:44;;;;;;;5.00;3.33;;;13.90;99.90;;;;;;4962091;29;20114;-95
2021/07/31 01:07:16;;;;;;;6.10;3.22;;;13.90;99.90;;;;;;4962943;29;20524;-96
2021/07/31 01:09:42;;;;;;;8.73;3.38;;;13.90;99.90;;;;;;4946222;29;20035;-95
2021/07/31 01:12:08;;;;;;;4.57;3.13;;;13.90;99.90;;;;;;4959231;29;20030;-96
2021/07/31 01:14:35;;;;;;;3.58;2.88;;;13.90;99.90;;;;;;4944910;29;20504;-95
2021/07/31 01:17:00;;;;;;;7.00;3.17;;;13.90;99.90;;;;;;4943534;29;20031;-96
2021/07/31 01:19:26;;;;;;;4.50;3.10;;;13.80;99.90;;;;;;4959185;29;20329;-95
2021/07/31 01:21:52;;;;;;;3.90;2.80;;;13.90;99.90;;;;;;4959424;29;20035;-96
2021/07/31 01:24:18;;;;;;;5.50;3.20;;;13.90;99.90;;;;;;4960846;29;20035;-96
2021/07/31 01:26:49;;;;;;;5.20;2.55;;;13.80;99.90;;;;;;4966557;29;20027;-95
2021/07/31 01:29:17;;;;;;;7.38;2.80;;;13.80;99.90;;;;;;4965876;29;20024;-96
2021/07/31 01:31:47;;;;;;;3.35;2.72;;;13.80;99.90;;;;;;4972163;29;20090;-96
2021/07/31 01:34:14;;;;;;;6.20;2.58;;;13.80;99.90;;;;;;4968280;29;20091;-96
2021/07/31 01:36:40;;;;;;;3.33;2.70;;;13.80;99.90;;;;;;4952268;29;20077;-96
2021/07/31 01:39:05;;;;;;;3.28;2.58;;;13.80;99.90;;;;;;4961684;29;20051;-95
2021/07/31 01:41:33;;;;;;;7.97;3.03;;;13.80;99.90;;;;;;4961641;29;20023;-96
2021/07/31 01:43:59;;;;;;;10.07;2.80;;;13.80;99.90;;;;;;4958258;29;20035;-95
2021/07/31 01:46:24;;;;;;;3.40;3.10;;;13.70;99.90;;;;;;4946680;29;20112;-96
2021/07/31 01:48:50;;;;;;;5.72;2.85;;;13.70;99.90;;;;;;4971052;29;20046;-96
2021/07/31 01:51:16;;;;;;;3.30;2.97;;;13.70;99.90;;;;;;4960992;29;20032;-96
2021/07/31 01:53:42;;;;;;;5.70;2.95;;;13.70;99.90;;;;;;4958596;29;20055;-96
2021/07/31 01:56:08;;;;;;;7.25;3.03;;;13.70;99.90;;;;;;4958796;29;20031;-95
2021/07/31 01:58:33;;;;;;;9.07;2.95;;;13.60;99.90;;;;;;4959060;29;20477;-95
2021/07/31 02:01:00;;;;;;;11.05;3.80;;;13.70;99.90;;;;;;4947338;29;20053;-96
2021/07/31 02:03:27;;;;;;;5.15;3.10;;;13.70;99.90;;;;;;4961000;29;20031;-96
2021/07/31 02:05:54;;;;;;;4.43;3.42;;;13.60;99.90;;;;;;4960741;29;20026;-94
2021/07/31 02:08:20;;;;;;;5.28;3.28;;;13.60;99.90;;;;;;4962602;28;20023;-95
2021/07/31 02:10:46;;;;;;;8.77;5.25;;;13.60;99.90;;;;;;4979852;28;20023;-95
2021/07/31 02:13:12;;;;;;;6.43;4.13;;;13.60;99.90;;;;;;4980169;28;20038;-95
2021/07/31 02:15:45;;;;;;;6.22;4.07;;;13.60;99.90;;;;;;4980047;28;20015;-95
2021/07/31 02:18:12;;;;;;;4.50;3.15;;;13.60;99.90;;;;;;4956865;29;20043;-95
2021/07/31 02:20:37;;;;;;;4.60;3.10;;;13.60;99.90;;;;;;4946727;29;20046;-95
2021/07/31 02:23:04;;;;;;;6.07;3.50;;;13.60;99.90;;;;;;4960766;29;20473;-95
2021/07/31 02:25:30;;;;;;;3.53;3.17;;;13.60;99.90;;;;;;4947176;29;20034;-95
2021/07/31 02:27:56;;;;;;;5.35;3.50;;;13.60;99.90;;;;;;4960338;29;20035;-96
2021/07/31 02:30:22;;;;;;;4.47;3.30;;;13.60;99.90;;;;;;4944287;29;20028;-95
2021/07/31 02:32:48;;;;;;;4.78;3.38;;;13.50;99.90;;;;;;4943079;29;20397;-95
2021/07/31 02:35:13;;;;;;;7.32;3.55;;;13.50;99.90;;;;;;4957987;29;20051;-96
2021/07/31 02:37:39;;;;;;;5.35;3.63;;;13.50;99.90;;;;;;4943445;29;20027;-95
2021/07/31 02:40:06;;;;;;;4.40;3.65;;;13.50;99.90;;;;;;4959927;29;20051;-96
2021/07/31 02:42:32;;;;;;;5.78;4.07;;;13.50;99.90;;;;;;4944952;29;20497;-96
2021/07/31 02:45:01;;;;;;;6.97;4.10;;;13.50;99.90;;;;;;4960489;29;20031;-96
2021/07/31 02:47:27;;;;;;;5.00;3.33;;;13.50;99.90;;;;;;4944320;29;20037;-96
2021/07/31 02:49:53;;;;;;;5.93;3.83;;;13.50;99.90;;;;;;4947314;29;20023;-96
2021/07/31 02:52:19;;;;;;;7.07;3.03;;;13.50;99.90;;;;;;4933693;29;20098;-96
2021/07/31 02:54:44;;;;;;;7.55;3.35;;;13.40;99.90;;;;;;4966049;29;20062;-96
2021/07/31 02:57:10;;;;;;;4.68;3.22;;;13.50;99.90;;;;;;4965271;29;20028;-96
2021/07/31 02:59:36;;;;;;;9.68;3.75;;;13.50;99.90;;;;;;4966944;29;20040;-96
2021/07/31 03:02:03;;;;;;;9.27;3.80;;;13.50;99.90;;;;;;4938659;29;20039;-95
2021/07/31 03:04:30;;;;;;;6.30;4.40;;;13.50;99.90;;;;;;4977781;29;20035;-96
2021/07/31 03:06:56;;;;;;;5.88;3.55;;;13.50;99.90;;;;;;4972990;28;20038;-96
2021/07/31 03:09:23;;;;;;;2.97;2.42;;;13.50;99.90;;;;;;4971626;29;20031;-96
2021/07/31 03:11:55;;;;;;;8.23;3.97;;;13.60;99.90;;;;;;4961169;29;20030;-96
2021/07/31 03:14:22;;;;;;;8.55;4.40;;;13.60;99.90;;;;;;4962071;29;20043;-96
2021/07/31 03:17:00;;;;;;;4.70;3.72;;;13.60;99.90;;;;;;4963151;29;20035;-96
2021/07/31 03:19:30;;;;;;;7.47;3.60;;;13.60;99.90;;;;;;4955343;29;20111;-95
2021/07/31 03:22:02;;;;;;;5.28;3.83;;;13.60;99.90;;;;;;4945151;29;20038;-96
2021/07/31 03:24:29;;;;;;;4.40;3.55;;;13.60;99.90;;;;;;4960823;29;20020;-96
2021/07/31 03:26:55;;;;;;;8.40;4.57;;;13.70;99.90;;;;;;4955735;29;20059;-96
2021/07/31 03:29:21;;;;;;;4.88;3.65;;;13.60;99.90;;;;;;4967889;29;20038;-96
2021/07/31 03:31:49;;;;;;;3.78;3.33;;;13.70;99.90;;;;;;4936491;29;20517;-96
2021/07/31 03:34:17;;;;;;;5.82;2.40;;;13.70;99.90;;;;;;4944463;29;20051;-96
2021/07/31 03:36:42;;;;;;;5.22;2.15;;;13.70;99.90;;;;;;4954453;29;20027;-95
2021/07/31 03:39:14;;;;;;;4.15;2.30;;;13.80;99.90;;;;;;4972755;29;20058;-96
2021/07/31 03:41:42;;;;;;;3.08;2.50;;;13.80;99.90;;;;;;4974925;29;20035;-96
2021/07/31 03:44:08;;;;;;;3.65;2.35;;;13.80;99.90;;;;;;4955145;29;20043;-95
2021/07/31 03:46:45;;;;;;;5.97;3.03;;;13.80;99.90;;;;;;4938798;29;20036;-96
2021/07/31 03:49:13;;;;;;;7.22;2.78;;;13.80;99.90;;;;;;4973745;28;20039;-96
2021/07/31 03:51:40;;;;;;;6.00;3.33;;;13.80;99.90;;;;;;4946762;29;20039;-96
2021/07/31 03:54:06;;;;;;;6.43;3.38;;;13.90;99.90;;;;;;4945888;29;20027;-95
2021/07/31 03:56:32;;;;;;;10.65;3.95;;;13.90;99.90;;;;;;4945852;29;20027;-96
2021/07/31 03:58:58;;;;;;;12.68;4.15;;;13.90;99.90;;;;;;4944974;29;20039;-96
2021/07/31 04:01:26;;;;;;;5.32;3.10;;;13.90;99.90;;;;;;4937568;29;20042;-96
2021/07/31 04:03:52;;;;;;;5.70;2.92;;;13.90;99.90;;;;;;4943501;29;20031;-95
2021/07/31 04:06:18;;;;;;;3.40;2.70;;;13.90;99.90;;;;;;4941771;29;20034;-96
2021/07/31 04:08:44;;;;;;;5.93;2.90;;;13.90;99.90;;;;;;4959353;29;20492;-96
2021/07/31 04:11:10;;;;;;;4.70;2.60;;;13.90;99.90;;;;;;4958969;29;20023;-96
2021/07/31 04:13:36;;;;;;;4.97;2.60;;;13.90;99.90;;;;;;4942132;29;20082;-96
2021/07/31 04:16:06;;;;;;;9.80;3.22;;;13.90;99.90;;;;;;4957123;29;20023;-96
2021/07/31 04:18:32;;;;;;;3.88;3.13;;;13.90;99.90;;;;;;4941202;29;20035;-95
2021/07/31 04:21:05;;;;;;;6.95;3.30;;;13.90;99.90;;;;;;4966787;29;20058;-96
2021/07/31 04:23:31;;;;;;;6.90;3.72;;;13.90;99.90;;;;;;4960288;29;20058;-95
2021/07/31 04:25:57;;;;;;;6.03;3.63;;;13.90;99.90;;;;;;4949174;29;20027;-96
2021/07/31 04:28:23;;;;;;;7.90;3.75;;;13.90;99.90;;;;;;4958997;29;20377;-96
2021/07/31 04:30:49;;;;;;;9.02;4.38;;;14.00;99.90;;;;;;4949558;29;20099;-96
2021/07/31 04:33:15;;;;;;;5.70;4.13;;;13.90;99.90;;;;;;4961768;29;20027;-95
2021/07/31 04:35:41;;;;;;;8.93;4.05;;;13.90;99.90;;;;;;4960815;29;20115;-95
2021/07/31 04:38:09;;;;;;;7.43;3.65;;;13.90;99.90;;;;;;4959528;29;20046;-95
2021/07/31 04:40:35;;;;;;;7.82;4.28;;;14.00;99.90;;;;;;4947921;29;20043;-95
2021/07/31 04:43:01;;;;;;;5.78;3.83;;;13.90;99.90;;;;;;4945513;29;20139;-94
2021/07/31 04:45:26;;;;;;;8.70;3.97;;;13.90;99.90;;;;;;4941986;28;20057;-95
2021/07/31 04:47:52;;;;;;;7.80;3.53;;;13.90;99.90;;;;;;4942890;29;20038;-95
2021/07/31 04:50:18;;;;;;;12.65;5.00;;;13.90;99.90;;;;;;4943722;29;20110;-96
2021/07/31 04:52:43;;;;;;;6.78;3.72;;;13.90;99.90;;;;;;4943317;29;20032;-96
2021/07/31 04:55:09;;;;;;;8.55;3.60;;;14.00;99.90;;;;;;4942412;29;20028;-95
2021/07/31 04:57:35;;;;;;;8.48;3.72;;;13.90;99.90;;;;;;4942442;29;20027;-95
2021/07/31 05:00:01;;;;;;;8.48;4.00;;;13.90;99.90;;;;;;4942698;29;20440;-96
2021/07/31 05:02:29;;;;;;;6.30;4.10;;;13.90;99.90;;;;;;4943510;29;20031;-96
2021/07/31 05:04:55;;;;;;;10.63;3.70;;;14.00;99.90;;;;;;4945677;29;20027;-96
2021/07/31 05:07:21;;;;;;;6.65;3.60;;;14.00;99.90;;;;;;4945711;29;20042;-96
2021/07/31 05:09:47;;;;;;;9.40;4.20;;;13.90;99.90;;;;;;4943778;29;20027;-96
2021/07/31 05:12:12;;;;;;;7.97;3.90;;;14.00;99.90;;;;;;4941814;29;20033;-94
2021/07/31 05:14:38;;;;;;;5.68;3.40;;;14.00;99.90;;;;;;4941639;29;20465;-95
2021/07/31 05:17:04;;;;;;;9.00;3.67;;;13.90;99.90;;;;;;4941832;29;20046;-96
2021/07/31 05:19:31;;;;;;;7.35;3.65;;;13.90;99.90;;;;;;4941486;29;20069;-94
2021/07/31 05:21:57;;;;;;;7.07;3.30;;;14.00;99.90;;;;;;4941441;29;20062;-95
2021/07/31 05:24:23;;;;;;;4.25;3.17;;;13.90;99.90;;;;;;4958821;29;20031;-94
2021/07/31 05:26:48;;;;;;;10.68;4.00;;;13.90;99.90;;;;;;4940832;29;20024;-95
2021/07/31 05:29:14;;;;;;;6.55;3.33;;;14.00;99.90;;;;;;4940923;29;20042;-95
2021/07/31 05:31:40;;;;;;;9.10;3.60;;;14.00;99.90;;;;;;4941462;29;20035;-96
2021/07/31 05:34:05;;;;;;;6.93;3.25;;;14.00;99.90;;;;;;4941749;29;20485;-95
2021/07/31 05:36:34;;;;;;;8.30;3.45;;;14.00;99.90;;;;;;4941072;29;20416;-95
2021/07/31 05:39:01;;;;;;;9.38;3.30;;;14.00;99.90;;;;;;4950370;28;20039;-95
2021/07/31 05:41:26;;;;;;;10.43;3.30;;;14.00;99.90;;;;;;4962620;28;20025;-96
2021/07/31 05:43:52;;;;;;;7.00;3.72;;;14.00;99.90;;;;;;4960394;28;20113;-95
2021/07/31 05:46:18;;;;;;;5.63;3.08;;;14.00;99.90;;;;;;4961329;28;20053;-96
2021/07/31 05:48:45;;;;;;;9.27;3.75;;;14.00;99.90;;;;;;4960421;28;20034;-95
2021/07/31 05:51:12;;;;;;;6.18;3.28;;;14.00;99.90;;;;;;4960073;28;20027;-95
2021/07/31 05:53:37;;;;;;;10.18;3.70;;;14.10;99.90;;;;;;4959495;28;20026;-93
2021/07/31 05:56:07;;;;;;;7.22;3.95;;;14.10;99.90;;;;;;4959659;28;20500;-95
2021/07/31 05:58:32;;;;;;;6.13;3.70;;;14.10;99.90;;;;;;4959216;28;20031;-95
2021/07/31 06:00:58;;;;;;;8.65;3.72;;;14.10;99.90;;;;;;4959536;28;20034;-94
2021/07/31 06:03:24;;;;;;;9.77;3.15;;;14.10;99.90;;;;;;4960236;28;20041;-95
2021/07/31 06:05:49;;;;;;;11.60;4.38;;;14.10;99.90;;;;;;4960079;28;20027;-95
2021/07/31 06:08:15;;;;;;;8.20;3.80;;;14.10;99.90;;;;;;4959306;28;20029;-96
2021/07/31 06:10:40;;;;;;;7.07;3.25;;;14.10;99.90;;;;;;4959976;28;20042;-95
2021/07/31 06:13:06;;;;;;;7.60;3.20;;;14.10;99.90;;;;;;4961384;28;20483;-94
2021/07/31 06:15:32;;;;;;;5.75;3.38;;;14.10;99.90;;;;;;4959136;28;20039;-94
2021/07/31 06:17:57;;;;;;;5.40;3.05;;;14.10;99.90;;;;;;4957955;28;20077;-94
2021/07/31 06:20:23;;;;;;;5.47;2.60;;;14.10;99.90;;;;;;4959683;28;20054;-96
2021/07/31 06:22:49;;;;;;;4.80;2.58;;;14.10;99.90;;;;;;4959661;28;20023;-95
2021/07/31 06:25:14;;;;;;;4.32;2.47;;;14.10;99.90;;;;;;4960024;28;20053;-95
2021/07/31 06:27:40;;;;;;;7.03;2.78;;;14.10;99.90;;;;;;4960061;28;20022;-96
2021/07/31 06:30:07;;;;;;;9.00;3.30;;;14.20;99.90;;;;;;4959469;28;20109;-95
2021/07/31 06:32:33;;;;;;;4.03;2.60;;;14.20;99.90;;;;;;4961152;28;20571;-95
2021/07/31 06:34:59;;;;;;;6.22;3.00;;;14.20;99.90;;;;;;4959315;28;20072;-96
2021/07/31 06:37:24;;;;;;;7.40;3.50;;;14.20;99.90;;;;;;4958802;28;20356;-95
2021/07/31 06:39:50;;;;;;;5.18;2.53;;;14.20;99.90;;;;;;4957572;29;20054;-96
2021/07/31 06:42:16;;;;;;;5.22;3.30;;;14.30;99.90;;;;;;4959879;29;20055;-94
2021/07/31 06:44:41;;;;;;;6.40;2.72;;;14.30;99.90;;;;;;4956339;29;20035;-96
2021/07/31 06:47:07;;;;;;;5.25;3.25;;;14.30;99.90;;;;;;4955365;28;20053;-95
2021/07/31 06:49:33;;;;;;;6.88;3.78;;;14.30;99.90;;;;;;4955309;29;20085;-95
2021/07/31 06:51:58;;;;;;;6.60;2.67;;;14.30;99.90;;;;;;4955745;29;20235;-94
2021/07/31 06:54:24;;;;;;;4.78;2.85;;;14.30;99.90;;;;;;4955416;28;20053;-96
2021/07/31 06:56:50;;;;;;;7.00;3.42;;;14.30;99.90;;;;;;4958519;29;20027;-96
2021/07/31 06:59:15;;;;;;;4.15;2.85;;;14.30;99.90;;;;;;4958391;29;20046;-95
2021/07/31 07:01:41;;;;;;;6.38;2.80;;;14.40;99.90;;;;;;4955904;29;20445;-95
2021/07/31 07:04:07;;;;;;;7.13;3.85;;;14.40;99.90;;;;;;4958549;29;20059;-94
2021/07/31 07:06:32;;;;;;;5.53;3.00;;;14.50;99.90;;;;;;4968538;29;20050;-94
2021/07/31 07:08:58;;;;;;;4.00;2.72;;;14.50;99.90;;;;;;4969531;29;20078;-93
2021/07/31 07:11:24;;;;;;;6.80;2.70;;;14.60;99.90;;;;;;4966702;29;20469;-94
2021/07/31 07:13:49;;;;;;;2.85;2.40;;;14.70;99.90;;;;;;4966020;29;20364;-93
2021/07/31 07:16:15;;;;;;;5.95;2.38;;;14.70;99.90;;;;;;4963861;29;20027;-94
2021/07/31 07:18:40;;;;;;;4.47;2.38;;;14.80;99.90;;;;;;4960889;29;20031;-94
2021/07/31 07:21:09;;;;;;;3.42;2.50;;;14.80;99.90;;;;;;4960577;29;20118;-92
2021/07/31 07:23:35;;;;;;;5.50;3.08;;;14.90;99.90;;;;;;4939205;29;20027;-94
2021/07/31 07:26:02;;;;;;;7.05;2.83;;;14.90;99.90;;;;;;4954891;29;20509;-93
2021/07/31 07:28:28;;;;;;;5.75;2.88;;;14.90;99.90;;;;;;4938590;29;20023;-95
2021/07/31 07:30:53;;;;;;;5.85;3.15;;;14.90;99.90;;;;;;4954414;29;20122;-94
2021/07/31 07:33:19;;;;;;;10.48;2.78;;;15.00;99.90;;;;;;4955997;29;20127;-94
2021/07/31 07:35:45;;;;;;;6.32;3.13;;;15.00;99.90;;;;;;4954580;29;20074;-94
2021/07/31 07:38:11;;;;;;;5.75;2.70;;;15.10;99.90;;;;;;4954801;28;20046;-93
2021/07/31 07:40:36;;;;;;;7.32;2.47;;;15.10;99.90;;;;;;4957635;28;20129;-93
2021/07/31 07:43:02;;;;;;;3.58;2.53;;;15.20;99.90;;;;;;4957728;28;20030;-93
2021/07/31 07:45:28;;;;;;;6.20;2.97;;;15.20;99.90;;;;;;4957324;28;20022;-94
2021/07/31 07:47:55;;;;;;;5.20;2.58;;;15.30;99.90;;;;;;4957731;28;20362;-94
2021/07/31 07:50:20;;;;;;;7.78;2.45;;;15.30;99.90;;;;;;4957537;28;20485;-93
2021/07/31 07:52:46;;;;;;;3.67;2.67;;;15.40;99.90;;;;;;4957532;28;20054;-94
2021/07/31 07:55:12;;;;;;;8.05;2.58;;;15.40;99.90;;;;;;4957783;28;20122;-93
2021/07/31 07:57:41;;;;;;;5.45;2.60;;;15.40;99.90;;;;;;4957424;28;20031;-94
2021/07/31 08:00:08;;;;;;;5.70;2.33;;;15.40;99.90;;;;;;4957583;28;20507;-94
2021/07/31 08:02:34;;;;;;;6.03;2.50;;;15.40;99.90;;;;;;4957657;28;20030;-95
2021/07/31 08:05:00;;;;;;;3.22;2.38;;;15.50;99.90;;;;;;4957814;28;20035;-94
2021/07/31 08:07:26;;;;;;;4.97;2.35;;;15.60;99.90;;;;;;4960973;28;20023;-95
2021/07/31 08:09:51;;;;;;;6.68;2.28;;;15.70;99.90;;;;;;4962601;28;20034;-93
2021/07/31 08:12:17;;;;;;;6.68;2.22;;;15.70;99.90;;;;;;4961200;28;20460;-95
2021/07/31 08:14:43;;;;;;;2.92;2.10;;;15.80;99.90;;;;;;4961393;28;20081;-93
2021/07/31 08:17:08;;;;;;;3.20;2.22;;;15.80;99.90;;;;;;4961253;28;20027;-93
2021/07/31 08:19:34;;;;;;;4.47;2.17;;;15.80;99.90;;;;;;4961177;28;20043;-94
2021/07/31 08:22:00;;;;;;;3.22;1.63;;;15.90;99.90;;;;;;4962089;28;20033;-93
2021/07/31 08:24:25;;;;;;;5.22;2.42;;;16.00;99.90;;;;;;4962249;28;20477;-94
2021/07/31 08:26:51;;;;;;;5.15;1.77;;;16.00;99.90;;;;;;4962162;28;20030;-94
2021/07/31 08:29:17;;;;;;;3.22;1.90;;;16.10;99.90;;;;;;4961677;28;20019;-94
2021/07/31 08:31:42;;;;;;;3.17;1.80;;;16.10;99.90;;;;;;4979162;28;20084;-93
2021/07/31 08:34:09;;;;;;;5.10;1.85;;;16.10;99.90;;;;;;4963151;28;20022;-91
2021/07/31 08:36:35;;;;;;;6.88;1.90;;;16.20;99.90;;;;;;4962519;28;20034;-93
2021/07/31 08:39:01;;;;;;;3.10;2.05;;;16.40;99.90;;;;;;4956480;29;20051;-94
2021/07/31 08:41:27;;;;;;;4.63;2.50;;;16.30;99.90;;;;;;4944015;29;20023;-93
2021/07/31 08:43:55;;;;;;;2.28;2.00;;;16.40;99.90;;;;;;4944182;29;20031;-93
2021/07/31 08:46:21;;;;;;;2.65;1.83;;;16.40;99.90;;;;;;4944256;29;20050;-94
2021/07/31 08:48:47;;;;;;;5.00;2.10;;;16.40;99.90;;;;;;4944167;29;20031;-93
2021/07/31 08:51:15;;;;;;;4.55;2.30;;;16.30;99.90;;;;;;4942499;29;20230;-94
2021/07/31 08:53:41;;;;;;;3.20;1.95;;;16.30;99.90;;;;;;4943173;29;20035;-94
2021/07/31 08:56:08;;;;;;;2.58;1.70;;;16.30;99.90;;;;;;4926626;29;20063;-92
2021/07/31 08:58:38;;;;;;;3.90;2.03;;;16.30;99.90;;;;;;4942262;29;20035;-93
2021/07/31 09:01:03;;;;;;;6.35;2.05;;;16.30;99.90;;;;;;4942393;29;20039;-93
2021/07/31 09:03:29;;;;;;;2.30;1.90;;;16.30;99.90;;;;;;4942487;29;20027;-92
2021/07/31 09:05:55;;;;;;;5.70;1.80;;;16.30;99.90;;;;;;4941066;29;20031;-94
2021/07/31 09:08:21;;;;;;;3.15;2.08;;;16.40;99.90;;;;;;4941403;29;20020;-94
2021/07/31 09:10:47;;;;;;;5.68;2.20;;;16.40;99.90;;;;;;4940812;29;20035;-93
2021/07/31 09:13:17;;;;;;;4.00;2.00;;;16.50;99.90;;;;;;4941246;29;20027;-94
2021/07/31 09:15:44;;;;;;;;;;;16.60;99.90;;;;;;4941405;29;20035;-93
2021/07/31 09:18:20;;;;;;;2.83;1.60;;;16.60;99.90;;;;;;4940281;29;20005;-94
2021/07/31 09:21:03;;;;;;;2.85;2.03;;;16.70;99.90;;;;;;4941858;29;20031;-94
2021/07/31 09:23:45;;;;;;;3.58;1.70;;;16.80;99.90;;;;;;4941404;29;20028;-93
2021/07/31 09:26:12;;;;;;;4.20;1.60;;;16.90;99.90;;;;;;4941278;29;20564;-94
2021/07/31 09:28:42;;;;;;;5.85;1.90;;;16.90;99.90;;;;;;4941515;29;20028;-91
2021/07/31 09:31:16;;;;;;;3.50;1.80;;;16.90;99.90;;;;;;4941149;29;20020;-93
2021/07/31 09:33:47;;;;;;;3.83;1.45;;;16.90;99.90;;;;;;4941558;29;20515;-94
2021/07/31 09:36:12;;;;;;;3.03;2.08;;;16.80;99.90;;;;;;4941394;29;20050;-93
2021/07/31 09:38:49;;;;;;;4.90;2.45;;;16.70;99.90;;;;;;4941846;29;20079;-95
2021/07/31 09:41:20;;;;;;;6.55;1.80;;;16.70;99.90;;;;;;4941257;29;20114;-95
2021/07/31 09:44:01;;;;;;;2.72;2.00;;;16.70;99.90;;;;;;4941177;29;20502;-94
2021/07/31 09:46:51;;;;;;;2.63;1.95;;;16.70;99.90;;;;;;4956997;28;20059;-96
2021/07/31 09:49:22;;;;;;;1.83;1.52;;;16.80;99.90;;;;;;4941556;29;20031;-94
2021/07/31 09:51:48;;;;;;;;;;;16.90;99.90;;;;;;4942696;29;20031;-94
2021/07/31 09:54:16;;;;;;;3.65;1.40;;;17.00;99.90;;;;;;4958077;29;19907;-93
2021/07/31 09:56:50;;;;;;;3.28;1.92;;;17.00;99.90;;;;;;4942150;29;20062;-93
2021/07/31 09:59:17;;;;;;;2.85;1.70;;;17.10;99.90;;;;;;4942187;29;20055;-95
2021/07/31 10:01:49;;;;;;;3.20;1.60;;;17.20;99.90;;;;;;4942318;29;20029;-96
2021/07/31 10:04:16;;;;;;;3.28;1.60;;;17.30;99.90;;;;;;4942121;29;20585;-93
2021/07/31 10:06:42;;;;;;;4.72;1.70;;;17.30;99.90;;;;;;4940839;29;20128;-93
2021/07/31 10:09:09;;;;;;;2.90;1.65;;;17.50;99.90;;;;;;4940571;29;20027;-94
2021/07/31 10:11:37;;;;;;;1.95;1.73;;;17.60;99.90;;;;;;4940462;29;20062;-92
2021/07/31 10:14:06;;;;;;;3.67;1.42;;;17.70;99.90;;;;;;4940537;29;20027;-91
2021/07/31 10:16:33;;;;;;;2.60;1.60;;;17.80;99.90;;;;;;4945453;29;20024;-93
2021/07/31 10:19:08;;;;;;;2.40;1.92;;;17.80;99.90;;;;;;4941621;29;20031;-92
2021/07/31 10:21:46;;;;;;;2.40;1.50;;;17.80;99.90;;;;;;4959038;29;20421;-91
2021/07/31 10:24:11;;;;;;;2.95;1.50;;;17.80;99.90;;;;;;4940154;29;20035;-92
2021/07/31 10:26:38;;;;;;;3.65;1.58;;;17.80;99.90;;;;;;4940594;29;20031;-91
2021/07/31 10:29:33;;;;;;;4.00;1.80;;;17.80;99.90;;;;;;4940276;29;20027;-93
2021/07/31 10:32:32;;;;;;;3.17;1.60;;;17.70;99.90;;;;;;4928333;29;20046;-93
2021/07/31 10:35:05;;;;;;;3.30;1.65;;;17.60;99.90;;;;;;4941068;29;20027;-94
2021/07/31 10:37:31;;;;;;;5.68;1.98;;;17.50;99.90;;;;;;4939650;29;20027;-91
2021/07/31 10:40:31;;;;;;;4.90;1.77;;;17.30;99.90;;;;;;4940085;29;20070;-93
2021/07/31 10:43:00;;;;;;;2.03;1.48;;;17.20;99.90;;;;;;4939842;29;20023;-93
2021/07/31 10:45:31;;;;;;;2.70;1.90;;;17.20;99.90;;;;;;4940542;29;20424;-92
2021/07/31 10:48:01;;;;;;;3.03;1.77;;;17.40;99.90;;;;;;4940414;29;20035;-91
2021/07/31 10:50:27;;;;;;;3.63;1.60;;;17.50;99.90;;;;;;4940658;29;20556;-93
2021/07/31 10:53:02;;;;;;;3.13;1.48;;;17.70;99.90;;;;;;4939755;29;20058;-92
2021/07/31 10:55:37;;;;;;;3.83;1.25;;;17.90;99.90;;;;;;4939108;29;20034;-92
2021/07/31 10:58:06;;;;;;;3.95;1.75;;;18.00;99.90;;;;;;4939039;29;20027;-93
2021/07/31 11:00:34;;;;;;;2.42;1.45;;;18.20;99.90;;;;;;4939735;29;20035;-94
2021/07/31 11:03:03;;;;;;;1.70;1.33;;;18.60;99.90;;;;;;4940342;29;20050;-92
2021/07/31 11:05:49;;;;;;;2.83;1.80;;;18.80;99.90;;;;;;4942783;29;20035;-94
2021/07/31 11:08:19;;;;;;;3.00;1.73;;;19.00;99.90;;;;;;4939816;29;20062;-93
2021/07/31 11:10:54;;;;;;;2.45;1.67;;;19.20;99.30;;;;;;4941691;29;20027;-92
2021/07/31 11:13:20;;;;;;;3.90;1.25;;;19.40;99.00;;;;;;4942648;29;20069;-91
2021/07/31 11:16:04;;;;;;;1.70;1.50;;;19.70;98.50;;;;;;4942281;29;20049;-93
2021/07/31 11:18:36;;;;;;;3.22;1.70;;;19.80;97.90;;;;;;4941944;29;20552;-92
2021/07/31 11:21:11;;;;;;;4.65;1.90;;;19.80;97.00;;;;;;4940947;29;20062;-91
2021/07/31 11:23:44;;;;;;;2.00;1.67;;;19.60;96.20;;;;;;4939843;29;20573;-92
2021/07/31 11:26:11;;;;;;;2.03;1.80;;;19.40;96.20;;;;;;4939939;29;20032;-92
2021/07/31 11:28:36;;;;;;;3.45;1.92;;;19.20;96.60;;;;;;4939718;29;20031;-91
2021/07/31 11:31:15;;;;;;;3.90;1.73;;;19.10;97.00;;;;;;4939814;29;20031;-92
2021/07/31 11:33:41;;;;;;;4.22;1.95;;;19.00;97.40;;;;;;4939665;29;20027;-93
2021/07/31 11:36:13;;;;;;;5.75;1.77;;;18.90;97.80;;;;;;4938752;29;20034;-91
2021/07/31 11:38:42;;;;;;;2.25;1.50;;;18.80;98.10;;;;;;4938480;29;20051;-92
2021/07/31 11:41:12;;;;;;;2.60;1.90;;;18.70;98.30;;;;;;4938250;29;20027;-92
2021/07/31 11:43:42;;;;;;;;;;;18.60;98.50;;;;;;4938843;29;20139;-92
2021/07/31 11:46:09;;;;;;;2.80;2.20;;;18.50;99.00;;;;;;4954176;28;19914;-90
2021/07/31 11:48:34;;;;;;;2.20;1.92;;;18.40;99.30;;;;;;4938509;29;20046;-92
2021/07/31 11:51:05;;;;;;;6.63;2.50;;;18.30;99.60;;;;;;4938469;29;20019;-91
2021/07/31 11:53:31;;;;;;;;;;;18.20;99.90;;;;;;4938878;29;20512;-92
2021/07/31 11:56:15;;;;;;;1.77;1.38;;;18.10;99.90;;;;;;4954687;29;19911;-92
2021/07/31 11:58:45;;;;;;;2.50;1.55;;;18.10;99.90;;;;;;4938217;29;20046;-93
2021/07/31 12:01:11;;;;;;;2.38;1.42;;;17.90;99.90;;;;;;4938160;29;20022;-92
2021/07/31 12:03:54;;;;;;;3.08;1.60;;;17.80;99.90;;;;;;4938334;29;20066;-92
2021/07/31 12:06:42;;;;;;;1.67;1.30;;;17.70;99.90;;;;;;4938081;29;20481;-93
2021/07/31 12:09:26;;;;;;;2.30;1.20;;;17.60;99.90;;;;;;4938728;29;20067;-92
2021/07/31 12:11:54;;;;;;;3.25;1.50;;;17.60;99.90;;;;;;4938401;29;20095;-92
2021/07/31 12:14:33;;;;;;;4.20;1.67;;;17.70;99.90;;;;;;4938036;29;20045;-93
2021/07/31 12:17:17;;;;;;;2.17;1.27;;;17.70;99.90;;;;;;4938344;29;20481;-92
2021/07/31 12:19:54;;;;;;;3.83;1.40;;;17.90;99.90;;;;;;4938212;29;20051;-92
2021/07/31 12:22:29;;;;;;;3.15;1.42;;;18.30;99.90;;;;;;4939005;29;20035;-92
2021/07/31 12:25:07;;;;;;;4.53;1.52;;;18.60;99.90;;;;;;4938655;29;20031;-91
2021/07/31 12:28:00;;;;;;;2.67;1.90;;;18.90;99.90;;;;;;4938582;29;20034;-92
2021/07/31 12:30:35;;;;;;;3.78;1.60;;;19.00;99.60;;;;;;4938817;29;20489;-92
2021/07/31 12:33:02;;;;;;;4.32;1.35;;;18.90;99.20;;;;;;4938800;29;20078;-93
2021/07/31 12:35:39;;;;;;;2.35;1.42;;;19.00;98.80;;;;;;4938764;29;20054;-94
2021/07/31 12:38:18;;;;;;;1.70;1.27;;;18.90;98.70;;;;;;4938943;29;20051;-92
2021/07/31 12:40:44;;;;;;;2.22;1.50;;;18.90;98.40;;;;;;4955123;29;20040;-91
2021/07/31 12:43:15;;;;;;;2.20;1.05;;;18.80;98.10;;;;;;4938886;29;20027;-92
2021/07/31 12:45:43;;;;;;;1.95;0.95;;;18.80;98.00;;;;;;4939113;29;20035;-90
2021/07/31 12:48:09;;;;;;;1.52;0.88;;;18.80;97.90;;;;;;4938526;29;20027;-95
2021/07/31 12:50:37;;;;;;;2.25;1.10;;;18.80;97.50;;;;;;4938699;29;20039;-92
2021/07/31 12:53:02;;;;;;;1.45;1.05;;;18.70;97.30;;;;;;4940424;29;20026;-92